Wetterdaten: Woche 03.09.07 - 09.09.07 (KW36)
Datum Zeit Temperatur Luftfeuchte Luftdruck Niederschlag Wind Richtung Sonnenschein Solar Taupunkt Windchill Windben
03.09.2007 00:00 15.3 C 85 % 1017.7 hPa 0.0 l/m 0.5 km/h (0 Bft) O 0.00 h 0 W/m 12.8 C 15.3 C 1.6 km/h (1 Bft)
03.09.2007 01:00 14.6 C 89 % 1017.3 hPa 0.0 l/m 0.0 km/h (0 Bft) N 0.00 h 0 W/m 12.8 C 14.6 C 0.3 km/h (0 Bft)
03.09.2007 02:00 14.2 C 92 % 1016.8 hPa 0.0 l/m 0.4 km/h (0 Bft) O 0.00 h 0 W/m 12.9 C 14.2 C 0.9 km/h (0 Bft)
03.09.2007 03:00 13.6 C 93 % 1016.4 hPa 0.0 l/m 0.9 km/h (0 Bft) O 0.00 h 0 W/m 12.5 C 13.6 C 2.2 km/h (1 Bft)
03.09.2007 04:00 13.0 C 95 % 1016.2 hPa 0.0 l/m 0.2 km/h (0 Bft) O 0.00 h 0 W/m 12.2 C 13.0 C 1.0 km/h (0 Bft)
03.09.2007 05:00 12.8 C 96 % 1015.7 hPa 0.0 l/m 0.7 km/h (0 Bft) O 0.00 h 0 W/m 12.2 C 12.8 C 1.3 km/h (1 Bft)
03.09.2007 06:00 12.8 C 97 % 1015.8 hPa 0.0 l/m 0.7 km/h (0 Bft) O 0.00 h 6 W/m 12.3 C 12.8 C 1.2 km/h (1 Bft)
03.09.2007 07:00 13.3 C 96 % 1015.7 hPa 0.0 l/m 0.2 km/h (0 Bft) O 0.00 h 37 W/m 12.7 C 13.3 C 0.8 km/h (0 Bft)
03.09.2007 08:00 14.6 C 91 % 1015.7 hPa 0.0 l/m 0.0 km/h (0 Bft) O 0.25 h 133 W/m 13.2 C 14.6 C 0.3 km/h (0 Bft)
03.09.2007 09:00 16.8 C 80 % 1015.2 hPa 0.0 l/m 3.9 km/h (1 Bft) W 0.78 h 333 W/m 13.3 C 16.8 C 6.5 km/h (2 Bft)
03.09.2007 10:00 17.4 C 74 % 1015.3 hPa 0.0 l/m 13.3 km/h (3 Bft) W 0.15 h 260 W/m 12.8 C 17.4 C 21.2 km/h (4 Bft)
03.09.2007 11:00 18.2 C 72 % 1015.3 hPa 0.0 l/m 16.3 km/h (3 Bft) W 0.27 h 380 W/m 13.0 C 18.2 C 24.9 km/h (4 Bft)
03.09.2007 12:00 18.4 C 69 % 1014.9 hPa 0.0 l/m 14.4 km/h (3 Bft) W 0.33 h 422 W/m 12.6 C 18.4 C 22.0 km/h (4 Bft)
03.09.2007 13:00 17.7 C 70 % 1014.7 hPa 0.0 l/m 11.6 km/h (2 Bft) W 0.00 h 259 W/m 12.2 C 17.7 C 18.5 km/h (3 Bft)
03.09.2007 14:00 17.1 C 70 % 1014.4 hPa 0.0 l/m 15.7 km/h (3 Bft) W 0.00 h 149 W/m 11.7 C 17.1 C 24.1 km/h (4 Bft)
03.09.2007 15:00 16.0 C 78 % 1014.6 hPa 0.2 l/m 13.2 km/h (3 Bft) W-NW 0.00 h 67 W/m 12.2 C 16.0 C 19.7 km/h (3 Bft)
03.09.2007 16:00 14.3 C 93 % 1014.7 hPa 1.0 l/m 7.6 km/h (2 Bft) W-NW 0.00 h 59 W/m 13.1 C 14.3 C 11.6 km/h (2 Bft)
03.09.2007 17:00 14.1 C 94 % 1014.8 hPa 0.6 l/m 8.4 km/h (2 Bft) W-NW 0.00 h 41 W/m 13.2 C 14.1 C 13.0 km/h (3 Bft)
03.09.2007 18:00 13.7 C 97 % 1014.8 hPa 1.0 l/m 11.2 km/h (2 Bft) W 0.00 h 33 W/m 13.2 C 13.7 C 17.4 km/h (3 Bft)
03.09.2007 19:00 13.6 C 98 % 1014.7 hPa 0.6 l/m 11.0 km/h (2 Bft) W 0.00 h 7 W/m 13.2 C 13.6 C 17.5 km/h (3 Bft)
03.09.2007 20:00 13.6 C 98 % 1014.6 hPa 0.6 l/m 10.5 km/h (2 Bft) W 0.00 h 0 W/m 13.3 C 13.6 C 16.8 km/h (3 Bft)
03.09.2007 21:00 13.4 C 97 % 1015.1 hPa 0.2 l/m 12.0 km/h (2 Bft) W 0.00 h 0 W/m 13.0 C 13.4 C 18.7 km/h (3 Bft)
03.09.2007 22:00 13.0 C 92 % 1016.2 hPa 0.0 l/m 6.2 km/h (2 Bft) O-SO 0.00 h 0 W/m 11.7 C 13.0 C 10.6 km/h (2 Bft)
03.09.2007 23:00 12.2 C 91 % 1017.2 hPa 0.0 l/m 3.9 km/h (1 Bft) O-SO 0.00 h 0 W/m 10.8 C 12.2 C 5.8 km/h (2 Bft)
04.09.2007 00:00 12.0 C 93 % 1017.7 hPa 0.0 l/m 2.4 km/h (1 Bft) O-SO 0.00 h 0 W/m 10.9 C 12.0 C 3.8 km/h (1 Bft)
04.09.2007 01:00 12.0 C 95 % 1018.0 hPa 0.4 l/m 2.0 km/h (1 Bft) NW 0.00 h 0 W/m 11.2 C 12.0 C 4.3 km/h (1 Bft)
04.09.2007 02:00 11.5 C 96 % 1018.1 hPa 0.0 l/m 1.5 km/h (1 Bft) O-SO 0.00 h 0 W/m 10.9 C 11.5 C 2.5 km/h (1 Bft)
04.09.2007 03:00 11.4 C 97 % 1018.1 hPa 0.0 l/m 0.1 km/h (0 Bft) O-SO 0.00 h 0 W/m 10.9 C 11.4 C 0.6 km/h (0 Bft)
04.09.2007 04:00 11.0 C 96 % 1018.4 hPa 0.0 l/m 0.2 km/h (0 Bft) O 0.00 h 0 W/m 10.5 C 11.0 C 0.7 km/h (0 Bft)
04.09.2007 05:00 10.7 C 98 % 1018.7 hPa 0.0 l/m 0.8 km/h (0 Bft) O 0.00 h 0 W/m 10.4 C 10.7 C 1.6 km/h (1 Bft)
04.09.2007 06:00 10.8 C 99 % 1019.1 hPa 0.2 l/m 0.4 km/h (0 Bft) N 0.00 h 0 W/m 10.7 C 10.8 C 1.3 km/h (1 Bft)
04.09.2007 07:00 10.6 C 99 % 1019.6 hPa 0.0 l/m 1.3 km/h (1 Bft) W-NW 0.15 h 41 W/m 10.4 C 10.6 C 2.6 km/h (1 Bft)
04.09.2007 08:00 11.6 C 95 % 1019.8 hPa 0.0 l/m 0.5 km/h (0 Bft) W-NW 0.72 h 188 W/m 10.9 C 11.6 C 1.6 km/h (1 Bft)
04.09.2007 09:00 12.3 C 91 % 1019.8 hPa 0.0 l/m 1.1 km/h (1 Bft) W-NW 0.28 h 202 W/m 10.9 C 12.3 C 2.6 km/h (1 Bft)
04.09.2007 10:00 13.5 C 82 % 1020.2 hPa 0.2 l/m 5.7 km/h (1 Bft) W 0.52 h 424 W/m 10.6 C 13.5 C 9.4 km/h (2 Bft)
04.09.2007 11:00 13.2 C 79 % 1020.4 hPa 0.4 l/m 5.6 km/h (1 Bft) W-NW 0.20 h 305 W/m 9.7 C 13.2 C 9.0 km/h (2 Bft)
04.09.2007 12:00 13.0 C 74 % 1020.5 hPa 0.0 l/m 6.9 km/h (2 Bft) N-NW 0.08 h 297 W/m 8.5 C 13.0 C 12.2 km/h (2 Bft)
04.09.2007 13:00 14.5 C 63 % 1020.8 hPa 0.0 l/m 6.6 km/h (2 Bft) N 0.35 h 441 W/m 7.5 C 14.5 C 11.7 km/h (2 Bft)
04.09.2007 14:00 15.8 C 49 % 1020.6 hPa 0.0 l/m 12.3 km/h (3 Bft) W-NW 0.80 h 650 W/m 5.1 C 15.8 C 19.8 km/h (4 Bft)
04.09.2007 15:00 14.9 C 52 % 1021.1 hPa 0.0 l/m 11.2 km/h (2 Bft) N-NW 0.22 h 325 W/m 5.2 C 14.9 C 18.3 km/h (3 Bft)
04.09.2007 16:00 14.5 C 55 % 1021.5 hPa 0.2 l/m 9.4 km/h (2 Bft) W-NW 0.25 h 250 W/m 5.5 C 14.5 C 14.8 km/h (3 Bft)
04.09.2007 17:00 11.3 C 77 % 1022.7 hPa 0.6 l/m 5.5 km/h (1 Bft) N-NW 0.00 h 50 W/m 7.3 C 11.3 C 9.6 km/h (2 Bft)
04.09.2007 18:00 11.2 C 81 % 1023.2 hPa 0.0 l/m 1.3 km/h (1 Bft) O 0.08 h 64 W/m 8.0 C 11.2 C 2.5 km/h (1 Bft)
04.09.2007 19:00 11.0 C 83 % 1023.8 hPa 0.0 l/m 2.6 km/h (1 Bft) O-SO 0.30 h 30 W/m 8.3 C 11.0 C 3.7 km/h (1 Bft)
04.09.2007 20:00 10.5 C 82 % 1024.8 hPa 0.0 l/m 2.2 km/h (1 Bft) O-SO 0.00 h 0 W/m 7.6 C 10.5 C 3.7 km/h (1 Bft)
04.09.2007 21:00 9.4 C 91 % 1025.4 hPa 0.0 l/m 2.8 km/h (1 Bft) O-SO 0.00 h 0 W/m 7.9 C 9.2 C 4.5 km/h (1 Bft)
04.09.2007 22:00 8.5 C 92 % 1025.9 hPa 0.0 l/m 2.5 km/h (1 Bft) O-SO 0.00 h 0 W/m 7.3 C 8.4 C 4.0 km/h (1 Bft)
04.09.2007 23:00 8.0 C 94 % 1026.5 hPa 0.0 l/m 1.4 km/h (1 Bft) O 0.00 h 0 W/m 7.2 C 8.0 C 2.4 km/h (1 Bft)
05.09.2007 00:00 8.2 C 96 % 1026.8 hPa 0.0 l/m 0.3 km/h (0 Bft) O 0.00 h 0 W/m 7.6 C 8.2 C 1.4 km/h (1 Bft)
05.09.2007 01:00 7.1 C 97 % 1026.7 hPa 0.2 l/m 0.7 km/h (0 Bft) W 0.00 h 0 W/m 6.6 C 7.1 C 1.9 km/h (1 Bft)
05.09.2007 02:00 6.8 C 97 % 1026.5 hPa 0.0 l/m 0.4 km/h (0 Bft) SO 0.00 h 0 W/m 6.3 C 6.8 C 1.0 km/h (0 Bft)
05.09.2007 03:00 6.2 C 98 % 1026.8 hPa 0.0 l/m 1.2 km/h (1 Bft) O-SO 0.00 h 0 W/m 5.9 C 6.2 C 2.4 km/h (1 Bft)
05.09.2007 04:00 6.1 C 98 % 1027.4 hPa 0.0 l/m 0.9 km/h (0 Bft) O-SO 0.00 h 0 W/m 5.8 C 6.1 C 2.2 km/h (1 Bft)
05.09.2007 05:00 6.5 C 99 % 1027.8 hPa 0.0 l/m 0.8 km/h (0 Bft) O-SO 0.00 h 0 W/m 6.4 C 6.5 C 2.3 km/h (1 Bft)
05.09.2007 06:00 6.5 C 100 % 1028.0 hPa 0.0 l/m 0.7 km/h (0 Bft) N 0.00 h 0 W/m 6.5 C 6.5 C 1.9 km/h (1 Bft)
05.09.2007 07:00 6.5 C 100 % 1028.5 hPa 0.0 l/m 0.4 km/h (0 Bft) N-NW 0.00 h 20 W/m 6.5 C 6.5 C 1.2 km/h (1 Bft)
05.09.2007 08:00 6.9 C 99 % 1028.7 hPa 0.0 l/m 0.8 km/h (0 Bft) NW 0.00 h 71 W/m 6.8 C 6.9 C 2.1 km/h (1 Bft)
05.09.2007 09:00 8.0 C 95 % 1028.9 hPa 0.0 l/m 0.7 km/h (0 Bft) NW 0.07 h 182 W/m 7.2 C 8.0 C 2.0 km/h (1 Bft)
05.09.2007 10:00 9.8 C 89 % 1029.0 hPa 0.0 l/m 1.2 km/h (1 Bft) O-SO 0.50 h 293 W/m 8.0 C 9.8 C 2.5 km/h (1 Bft)
05.09.2007 11:00 12.0 C 82 % 1028.7 hPa 0.0 l/m 0.9 km/h (0 Bft) W-NW 0.47 h 451 W/m 9.0 C 12.0 C 2.3 km/h (1 Bft)
05.09.2007 12:00 14.1 C 66 % 1028.2 hPa 0.0 l/m 2.4 km/h (1 Bft) W-NW 0.60 h 571 W/m 7.9 C 14.1 C 4.8 km/h (1 Bft)
05.09.2007 13:00 14.8 C 60 % 1028.1 hPa 0.0 l/m 3.9 km/h (1 Bft) W-SW 0.68 h 659 W/m 7.2 C 14.8 C 6.4 km/h (2 Bft)
05.09.2007 14:00 16.2 C 56 % 1027.8 hPa 0.0 l/m 4.1 km/h (1 Bft) W-NW 0.77 h 679 W/m 7.4 C 16.2 C 6.4 km/h (2 Bft)
05.09.2007 15:00 16.0 C 56 % 1027.7 hPa 0.0 l/m 5.7 km/h (1 Bft) W 0.38 h 399 W/m 7.1 C 16.0 C 8.8 km/h (2 Bft)
05.09.2007 16:00 15.6 C 54 % 1027.7 hPa 0.0 l/m 2.9 km/h (1 Bft) W-NW 0.38 h 306 W/m 6.3 C 15.6 C 5.2 km/h (1 Bft)
05.09.2007 17:00 15.9 C 50 % 1027.6 hPa 0.0 l/m 2.8 km/h (1 Bft) W 0.53 h 255 W/m 5.6 C 15.9 C 4.8 km/h (1 Bft)
05.09.2007 18:00 14.2 C 57 % 1027.6 hPa 0.0 l/m 0.7 km/h (0 Bft) SO 0.17 h 69 W/m 5.7 C 14.2 C 1.6 km/h (1 Bft)
05.09.2007 19:00 13.7 C 63 % 1027.8 hPa 0.0 l/m 2.8 km/h (1 Bft) N 0.27 h 35 W/m 6.7 C 13.7 C 5.0 km/h (1 Bft)
05.09.2007 20:00 12.5 C 60 % 1028.2 hPa 0.0 l/m 2.8 km/h (1 Bft) N-NO 0.00 h 0 W/m 5.0 C 12.5 C 5.3 km/h (1 Bft)
05.09.2007 21:00 10.7 C 74 % 1028.6 hPa 0.0 l/m 0.5 km/h (0 Bft) O 0.00 h 0 W/m 6.2 C 10.7 C 1.3 km/h (1 Bft)
05.09.2007 22:00 9.5 C 80 % 1028.9 hPa 0.0 l/m 0.2 km/h (0 Bft) S-SO 0.00 h 0 W/m 6.1 C 9.5 C 1.0 km/h (0 Bft)
05.09.2007 23:00 8.3 C 88 % 1028.5 hPa 0.0 l/m 1.1 km/h (0 Bft) S-SO 0.00 h 0 W/m 6.4 C 8.3 C 1.6 km/h (1 Bft)
06.09.2007 00:00 7.4 C 90 % 1028.3 hPa 0.0 l/m 0.1 km/h (0 Bft) O-SO 0.00 h 0 W/m 5.9 C 7.4 C 0.4 km/h (0 Bft)
06.09.2007 01:00 6.5 C 93 % 1028.3 hPa 0.0 l/m 0.4 km/h (0 Bft) O-SO 0.00 h 0 W/m 5.5 C 6.5 C 0.8 km/h (0 Bft)
06.09.2007 02:00 6.0 C 94 % 1028.0 hPa 0.0 l/m 1.2 km/h (1 Bft) O-SO 0.00 h 0 W/m 5.2 C 6.0 C 2.5 km/h (1 Bft)
06.09.2007 03:00 5.5 C 96 % 1028.1 hPa 0.0 l/m 0.4 km/h (0 Bft) O-SO 0.00 h 0 W/m 4.9 C 5.5 C 1.0 km/h (0 Bft)
06.09.2007 04:00 5.0 C 97 % 1027.7 hPa 0.0 l/m 0.9 km/h (0 Bft) O-SO 0.00 h 0 W/m 4.6 C 5.0 C 1.9 km/h (1 Bft)
06.09.2007 05:00 4.7 C 97 % 1027.8 hPa 0.0 l/m 0.8 km/h (0 Bft) O-SO 0.00 h 0 W/m 4.3 C 4.7 C 1.5 km/h (1 Bft)
06.09.2007 06:00 4.5 C 98 % 1028.0 hPa 0.0 l/m 0.7 km/h (0 Bft) O-SO 0.00 h 0 W/m 4.2 C 4.5 C 1.6 km/h (1 Bft)
06.09.2007 07:00 4.7 C 99 % 1028.1 hPa 0.0 l/m 0.5 km/h (0 Bft) O-SO 0.13 h 43 W/m 4.6 C 4.7 C 1.4 km/h (1 Bft)
06.09.2007 08:00 5.7 C 100 % 1028.2 hPa 0.2 l/m 0.2 km/h (0 Bft) O-SO 0.38 h 136 W/m 5.6 C 5.7 C 0.7 km/h (0 Bft)
06.09.2007 09:00 8.4 C 89 % 1028.0 hPa 0.0 l/m 0.3 km/h (0 Bft) O-SO 1.00 h 352 W/m 6.7 C 8.4 C 1.2 km/h (1 Bft)
06.09.2007 10:00 11.2 C 77 % 1027.7 hPa 0.0 l/m 1.1 km/h (1 Bft) O-SO 0.68 h 405 W/m 7.3 C 11.2 C 2.8 km/h (1 Bft)
06.09.2007 11:00 14.3 C 64 % 1027.2 hPa 0.0 l/m 3.1 km/h (1 Bft) S-SO 0.80 h 508 W/m 7.5 C 14.3 C 6.1 km/h (2 Bft)
06.09.2007 12:00 14.8 C 59 % 1027.1 hPa 0.0 l/m 2.1 km/h (1 Bft) S-SO 0.47 h 430 W/m 7.0 C 14.8 C 4.4 km/h (1 Bft)
06.09.2007 13:00 15.2 C 58 % 1026.9 hPa 0.0 l/m 6.8 km/h (2 Bft) W 0.40 h 405 W/m 7.1 C 15.2 C 10.4 km/h (2 Bft)
06.09.2007 14:00 14.6 C 63 % 1026.9 hPa 0.0 l/m 5.4 km/h (1 Bft) W-NW 0.00 h 212 W/m 7.7 C 14.6 C 8.4 km/h (2 Bft)
06.09.2007 15:00 14.6 C 65 % 1026.8 hPa 0.0 l/m 6.8 km/h (2 Bft) W-NW 0.00 h 182 W/m 8.1 C 14.6 C 10.2 km/h (2 Bft)
06.09.2007 16:00 13.9 C 71 % 1026.9 hPa 0.0 l/m 5.6 km/h (1 Bft) W 0.00 h 129 W/m 8.7 C 13.9 C 8.8 km/h (2 Bft)
06.09.2007 17:00 13.6 C 75 % 1026.9 hPa 0.0 l/m 6.1 km/h (2 Bft) W-NW 0.00 h 93 W/m 9.2 C 13.6 C 9.4 km/h (2 Bft)
06.09.2007 18:00 13.1 C 80 % 1027.0 hPa 0.0 l/m 2.5 km/h (1 Bft) W 0.00 h 37 W/m 9.8 C 13.1 C 4.8 km/h (1 Bft)
06.09.2007 19:00 12.1 C 88 % 1027.2 hPa 0.0 l/m 1.3 km/h (1 Bft) W 0.00 h 13 W/m 10.2 C 12.1 C 3.1 km/h (1 Bft)
06.09.2007 20:00 11.7 C 92 % 1027.4 hPa 0.2 l/m 0.2 km/h (0 Bft) W 0.00 h 0 W/m 10.5 C 11.7 C 0.5 km/h (0 Bft)
06.09.2007 21:00 11.7 C 94 % 1027.2 hPa 0.2 l/m 0.5 km/h (0 Bft) S 0.00 h 0 W/m 10.8 C 11.7 C 1.7 km/h (1 Bft)
06.09.2007 22:00 11.4 C 97 % 1026.8 hPa 0.8 l/m 1.0 km/h (0 Bft) S-SO 0.00 h 0 W/m 11.0 C 11.4 C 2.5 km/h (1 Bft)
06.09.2007 23:00 11.4 C 98 % 1026.8 hPa 0.0 l/m 0.6 km/h (0 Bft) SO 0.00 h 0 W/m 11.1 C 11.4 C 1.9 km/h (1 Bft)
07.09.2007 00:00 11.4 C 98 % 1026.7 hPa 0.0 l/m 0.1 km/h (0 Bft) SO 0.00 h 0 W/m 11.1 C 11.4 C 0.4 km/h (0 Bft)
07.09.2007 01:00 11.4 C 98 % 1026.8 hPa 0.0 l/m 0.0 km/h (0 Bft) N 0.00 h 0 W/m 11.2 C 11.4 C 0.1 km/h (0 Bft)
07.09.2007 02:00 11.0 C 99 % 1026.6 hPa 0.0 l/m 0.1 km/h (0 Bft) SO 0.00 h 0 W/m 10.8 C 11.0 C 0.6 km/h (0 Bft)
07.09.2007 03:00 10.8 C 100 % 1026.3 hPa 0.0 l/m 0.2 km/h (0 Bft) SO 0.00 h 0 W/m 10.8 C 10.8 C 0.5 km/h (0 Bft)
07.09.2007 04:00 10.7 C 100 % 1026.1 hPa 0.0 l/m 0.0 km/h (0 Bft) SO 0.00 h 0 W/m 10.7 C 10.7 C 0.4 km/h (0 Bft)
07.09.2007 05:00 10.7 C 100 % 1025.9 hPa 0.0 l/m 0.4 km/h (0 Bft) SO 0.00 h 0 W/m 10.7 C 10.7 C 1.1 km/h (0 Bft)
07.09.2007 06:00 10.8 C 100 % 1025.9 hPa 0.0 l/m 0.2 km/h (0 Bft) O-SO 0.00 h 0 W/m 10.8 C 10.8 C 0.7 km/h (0 Bft)
07.09.2007 07:00 10.7 C 100 % 1026.3 hPa 0.0 l/m 0.3 km/h (0 Bft) N 0.00 h 13 W/m 10.7 C 10.7 C 0.9 km/h (0 Bft)
07.09.2007 08:00 10.9 C 100 % 1026.5 hPa 0.0 l/m 0.9 km/h (0 Bft) NW 0.00 h 42 W/m 10.9 C 10.9 C 2.0 km/h (1 Bft)
07.09.2007 09:00 11.2 C 99 % 1026.7 hPa 0.0 l/m 1.6 km/h (1 Bft) NW 0.00 h 107 W/m 11.0 C 11.2 C 3.5 km/h (1 Bft)
07.09.2007 10:00 12.0 C 94 % 1026.7 hPa 0.0 l/m 3.6 km/h (1 Bft) W-NW 0.20 h 227 W/m 11.1 C 12.0 C 5.7 km/h (1 Bft)
07.09.2007 11:00 13.5 C 88 % 1026.2 hPa 0.0 l/m 2.5 km/h (1 Bft) NW 0.00 h 312 W/m 11.6 C 13.5 C 4.6 km/h (1 Bft)
07.09.2007 12:00 14.6 C 84 % 1025.9 hPa 0.0 l/m 4.3 km/h (1 Bft) N-NW 0.02 h 357 W/m 11.9 C 14.6 C 6.7 km/h (2 Bft)
07.09.2007 13:00 15.0 C 82 % 1025.7 hPa 0.0 l/m 3.5 km/h (1 Bft) W-NW 0.00 h 281 W/m 12.0 C 15.0 C 5.6 km/h (1 Bft)
07.09.2007 14:00 15.2 C 80 % 1025.7 hPa 0.0 l/m 3.7 km/h (1 Bft) W-NW 0.00 h 186 W/m 11.9 C 15.2 C 5.9 km/h (2 Bft)
07.09.2007 15:00 15.9 C 76 % 1025.4 hPa 0.0 l/m 4.0 km/h (1 Bft) NW 0.10 h 242 W/m 11.7 C 15.9 C 6.6 km/h (2 Bft)
07.09.2007 16:00 16.5 C 70 % 1025.5 hPa 0.0 l/m 1.7 km/h (1 Bft) SO 0.00 h 156 W/m 11.0 C 16.5 C 3.5 km/h (1 Bft)
07.09.2007 17:00 16.1 C 73 % 1025.3 hPa 0.0 l/m 3.9 km/h (1 Bft) N-NW 0.00 h 101 W/m 11.2 C 16.1 C 6.7 km/h (2 Bft)
07.09.2007 18:00 15.5 C 76 % 1025.1 hPa 0.0 l/m 5.7 km/h (1 Bft) N 0.00 h 54 W/m 11.2 C 15.5 C 10.4 km/h (2 Bft)
07.09.2007 19:00 14.1 C 82 % 1025.2 hPa 0.0 l/m 1.3 km/h (1 Bft) O 0.05 h 16 W/m 11.2 C 14.1 C 2.9 km/h (1 Bft)
07.09.2007 20:00 12.9 C 87 % 1025.6 hPa 0.0 l/m 0.9 km/h (0 Bft) O-SO 0.00 h 0 W/m 10.8 C 12.9 C 2.1 km/h (1 Bft)
07.09.2007 21:00 11.8 C 92 % 1026.1 hPa 0.0 l/m 0.2 km/h (0 Bft) O-SO 0.00 h 0 W/m 10.5 C 11.8 C 1.4 km/h (1 Bft)
07.09.2007 22:00 11.2 C 95 % 1026.4 hPa 0.0 l/m 0.0 km/h (0 Bft) N 0.00 h 0 W/m 10.4 C 11.2 C 0.0 km/h (0 Bft)
07.09.2007 23:00 10.8 C 97 % 1026.5 hPa 0.0 l/m 0.0 km/h (0 Bft) O-SO 0.00 h 0 W/m 10.3 C 10.8 C 0.4 km/h (0 Bft)
08.09.2007 00:00 10.8 C 98 % 1026.4 hPa 0.0 l/m 0.1 km/h (0 Bft) O-SO 0.00 h 0 W/m 10.5 C 10.8 C 0.5 km/h (0 Bft)
08.09.2007 01:00 10.6 C 99 % 1026.3 hPa 0.0 l/m 0.0 km/h (0 Bft) N 0.00 h 0 W/m 10.3 C 10.6 C 0.0 km/h (0 Bft)
08.09.2007 02:00 9.9 C 99 % 1025.9 hPa 0.0 l/m 0.2 km/h (0 Bft) NO 0.00 h 0 W/m 9.7 C 9.9 C 0.5 km/h (0 Bft)
08.09.2007 03:00 9.4 C 100 % 1025.4 hPa 0.2 l/m 0.1 km/h (0 Bft) NO 0.00 h 0 W/m 9.3 C 9.4 C 0.5 km/h (0 Bft)
08.09.2007 04:00 9.1 C 100 % 1025.2 hPa 0.0 l/m 0.2 km/h (0 Bft) NO 0.00 h 0 W/m 9.1 C 9.1 C 0.5 km/h (0 Bft)
08.09.2007 05:00 8.8 C 100 % 1025.0 hPa 0.0 l/m 0.2 km/h (0 Bft) O 0.00 h 0 W/m 8.8 C 8.8 C 1.0 km/h (0 Bft)
08.09.2007 06:00 9.2 C 100 % 1025.1 hPa 0.0 l/m 0.1 km/h (0 Bft) O 0.00 h 0 W/m 9.2 C 9.2 C 0.2 km/h (0 Bft)
08.09.2007 07:00 8.7 C 100 % 1025.4 hPa 0.0 l/m 0.0 km/h (0 Bft) N 0.00 h 22 W/m 8.7 C 8.7 C 0.0 km/h (0 Bft)
08.09.2007 08:00 9.4 C 100 % 1025.5 hPa 0.0 l/m 0.1 km/h (0 Bft) NO 0.00 h 99 W/m 9.4 C 9.4 C 0.4 km/h (0 Bft)
08.09.2007 09:00 10.6 C 100 % 1025.4 hPa 0.0 l/m 0.9 km/h (0 Bft) N 0.45 h 244 W/m 10.6 C 10.6 C 2.4 km/h (1 Bft)
08.09.2007 10:00 13.9 C 92 % 1024.8 hPa 0.0 l/m 1.0 km/h (0 Bft) N 1.00 h 474 W/m 12.6 C 13.9 C 2.6 km/h (1 Bft)
08.09.2007 11:00 17.5 C 70 % 1024.3 hPa 0.0 l/m 3.3 km/h (1 Bft) O 1.00 h 628 W/m 11.9 C 17.5 C 6.3 km/h (2 Bft)
08.09.2007 12:00 18.8 C 64 % 1023.7 hPa 0.0 l/m 5.8 km/h (2 Bft) N-NW 0.80 h 639 W/m 12.0 C 18.8 C 10.0 km/h (2 Bft)
08.09.2007 13:00 19.4 C 60 % 1023.3 hPa 0.0 l/m 5.7 km/h (1 Bft) O-SO 0.83 h 670 W/m 11.5 C 19.4 C 11.2 km/h (2 Bft)
08.09.2007 14:00 19.4 C 61 % 1023.2 hPa 0.0 l/m 5.3 km/h (1 Bft) N-NW 0.75 h 571 W/m 11.6 C 19.4 C 10.3 km/h (2 Bft)
08.09.2007 15:00 19.7 C 59 % 1022.5 hPa 0.0 l/m 6.4 km/h (2 Bft) O-SO 1.00 h 595 W/m 11.4 C 19.7 C 10.6 km/h (2 Bft)
08.09.2007 16:00 19.5 C 59 % 1021.9 hPa 0.0 l/m 5.7 km/h (1 Bft) O-SO 0.70 h 379 W/m 11.3 C 19.5 C 9.3 km/h (2 Bft)
08.09.2007 17:00 19.1 C 62 % 1021.7 hPa 0.0 l/m 3.4 km/h (1 Bft) SO 0.13 h 146 W/m 11.5 C 19.1 C 5.9 km/h (2 Bft)
08.09.2007 18:00 18.5 C 66 % 1021.5 hPa 0.0 l/m 2.4 km/h (1 Bft) O-SO 0.00 h 59 W/m 12.0 C 18.5 C 4.1 km/h (1 Bft)
08.09.2007 19:00 17.4 C 73 % 1021.4 hPa 0.0 l/m 1.3 km/h (1 Bft) O-SO 0.00 h 11 W/m 12.6 C 17.4 C 2.8 km/h (1 Bft)
08.09.2007 20:00 16.3 C 79 % 1021.7 hPa 0.0 l/m 3.1 km/h (1 Bft) O-SO 0.00 h 0 W/m 12.6 C 16.3 C 4.6 km/h (1 Bft)
08.09.2007 21:00 15.8 C 81 % 1021.8 hPa 0.0 l/m 0.1 km/h (0 Bft) O-SO 0.00 h 0 W/m 12.5 C 15.8 C 0.4 km/h (0 Bft)
08.09.2007 22:00 15.0 C 85 % 1021.5 hPa 0.0 l/m 0.3 km/h (0 Bft) O-SO 0.00 h 0 W/m 12.4 C 15.0 C 1.0 km/h (0 Bft)
08.09.2007 23:00 14.9 C 84 % 1021.3 hPa 0.0 l/m 0.6 km/h (0 Bft) NO 0.00 h 0 W/m 12.2 C 14.9 C 2.2 km/h (1 Bft)
09.09.2007 00:00 15.0 C 82 % 1021.1 hPa 0.0 l/m 0.7 km/h (0 Bft) N-NO 0.00 h 0 W/m 11.9 C 15.0 C 2.3 km/h (1 Bft)
09.09.2007 01:00 14.8 C 82 % 1021.1 hPa 0.0 l/m 0.6 km/h (0 Bft) N 0.00 h 0 W/m 11.9 C 14.8 C 1.9 km/h (1 Bft)
09.09.2007 02:00 14.6 C 82 % 1020.7 hPa 0.0 l/m 0.0 km/h (0 Bft) O-NO 0.00 h 0 W/m 11.6 C 14.6 C 0.5 km/h (0 Bft)
09.09.2007 03:00 14.2 C 85 % 1020.3 hPa 0.0 l/m 0.0 km/h (0 Bft) N 0.00 h 0 W/m 11.8 C 14.2 C 0.1 km/h (0 Bft)
09.09.2007 04:00 13.4 C 91 % 1020.0 hPa 0.0 l/m 0.0 km/h (0 Bft) O-NO 0.00 h 0 W/m 11.9 C 13.4 C 0.4 km/h (0 Bft)
09.09.2007 05:00 13.3 C 92 % 1019.7 hPa 0.0 l/m 0.0 km/h (0 Bft) O-NO 0.00 h 0 W/m 12.0 C 13.3 C 0.2 km/h (0 Bft)
09.09.2007 06:00 13.2 C 93 % 1019.8 hPa 0.0 l/m 0.2 km/h (0 Bft) NO 0.00 h 0 W/m 12.1 C 13.2 C 1.0 km/h (0 Bft)
09.09.2007 07:00 13.2 C 94 % 1019.9 hPa 0.0 l/m 0.3 km/h (0 Bft) NO 0.00 h 14 W/m 12.2 C 13.2 C 0.8 km/h (0 Bft)
09.09.2007 08:00 13.7 C 92 % 1019.9 hPa 0.0 l/m 1.1 km/h (1 Bft) N 0.00 h 61 W/m 12.4 C 13.7 C 2.2 km/h (1 Bft)
09.09.2007 09:00 14.4 C 88 % 1019.9 hPa 0.0 l/m 1.0 km/h (0 Bft) N-NW 0.00 h 144 W/m 12.6 C 14.4 C 2.3 km/h (1 Bft)
09.09.2007 10:00 16.0 C 82 % 1020.0 hPa 0.0 l/m 0.6 km/h (0 Bft) N-NW 0.50 h 362 W/m 12.9 C 16.0 C 1.8 km/h (1 Bft)
09.09.2007 11:00 17.7 C 71 % 1019.5 hPa 0.0 l/m 1.0 km/h (0 Bft) O-SO 0.42 h 409 W/m 12.3 C 17.7 C 2.8 km/h (1 Bft)
09.09.2007 12:00 17.5 C 73 % 1019.5 hPa 0.0 l/m 2.7 km/h (1 Bft) W 0.00 h 208 W/m 12.6 C 17.5 C 4.7 km/h (1 Bft)
09.09.2007 13:00 16.7 C 77 % 1019.6 hPa 0.0 l/m 3.1 km/h (1 Bft) NW 0.00 h 128 W/m 12.7 C 16.7 C 5.1 km/h (1 Bft)
09.09.2007 14:00 18.8 C 68 % 1019.1 hPa 0.0 l/m 3.6 km/h (1 Bft) W 0.50 h 421 W/m 12.8 C 18.8 C 6.1 km/h (2 Bft)
09.09.2007 15:00 18.4 C 64 % 1018.7 hPa 0.0 l/m 3.9 km/h (1 Bft) W 0.00 h 210 W/m 11.5 C 18.4 C 6.2 km/h (2 Bft)
09.09.2007 16:00 18.3 C 68 % 1018.8 hPa 0.0 l/m 2.0 km/h (1 Bft) W 0.00 h 163 W/m 12.3 C 18.3 C 4.1 km/h (1 Bft)
09.09.2007 17:00 17.8 C 67 % 1018.7 hPa 0.0 l/m 0.5 km/h (0 Bft) W-NW 0.00 h 66 W/m 11.7 C 17.8 C 1.6 km/h (1 Bft)
09.09.2007 18:00 17.5 C 71 % 1018.7 hPa 0.0 l/m 0.1 km/h (0 Bft) S-SW 0.00 h 62 W/m 12.2 C 17.5 C 0.2 km/h (0 Bft)
09.09.2007 19:00 16.6 C 79 % 1018.8 hPa 0.0 l/m 0.3 km/h (0 Bft) SO 0.02 h 25 W/m 12.8 C 16.6 C 0.7 km/h (0 Bft)
09.09.2007 20:00 14.8 C 85 % 1019.4 hPa 0.0 l/m 0.4 km/h (0 Bft) O-SO 0.00 h 0 W/m 12.3 C 14.8 C 1.2 km/h (1 Bft)
09.09.2007 21:00 13.8 C 88 % 1020.0 hPa 0.0 l/m 0.4 km/h (0 Bft) N-NW 0.00 h 0 W/m 11.8 C 13.8 C 1.0 km/h (0 Bft)
09.09.2007 22:00 13.5 C 85 % 1020.4 hPa 0.0 l/m 0.8 km/h (0 Bft) O 0.00 h 0 W/m 11.0 C 13.5 C 1.6 km/h (1 Bft)
09.09.2007 23:00 12.7 C 86 % 1020.4 hPa 0.0 l/m 1.3 km/h (1 Bft) W 0.00 h 0 W/m 10.4 C 12.7 C 3.0 km/h (1 Bft)
Min-Datum _ 06.09.07 04.09.07 03.09.07 - 03.09.07 - - - 04.09.07 06.09.07 03.09.07
_ Min-Zeit 06:28 14:49 13:45 - 00:00 - - - 14:54 06:28 00:00
Minimum _ 4.3 C 40 % 1014.4 hPa - 0.0 km/h (0 Bft) - - - 2.8 C 4.3 C 0.0 km/h (0 Bft)
Max-Datum _ 08.09.07 03.09.07 05.09.07 03.09.07 03.09.07 - 03.09.07 04.09.07 08.09.07 08.09.07 03.09.07
_ Max-Zeit 14:59 21:18 10:15 16:01 11:07 - 08:22 13:25 12:01 14:47 22:05
Maximum _ 20.2 C 100 % 1029.0 hPa 1.0 l/m 30.4 km/h
W (5 Bft)
- 0.02 h 965 W/m 14.4 C 20.2 C 41.7 km/h
O-SO (6 Bft)
Durchschnitt _ 12.8 C 84 % 1023.1 hPa #8.0 l/m 2.7 km/h (1 Bft) W #22:53 h 231 W/m 9.9 C 12.8 C 4.6 km/h (1 Bft)
© Kaiko 2007